Time;durP1;ratioP1;P1;durP2;ratioP2;P2;SDS_P1;SDS_P2;PMS_P1;PMS_P2;Temp;Humidity;BMP_temperature;BMP_pressure;BME280_temperature;BME280_humidity;BME280_pressure;Samples;Min_cycle;Max_cycle;Signal;HPM_P1;HPM_P2
2022/11/08 00:02:16;;;;;;;;;;;9.00;99.90;;;;;;4979039;28;19925;-71
2022/11/08 00:04:44;;;;;;;;;;;9.00;99.90;;;;;;5000261;28;19938;-71
2022/11/08 00:15:23;;;;;;;;;;;8.80;99.90;;;;;;5002098;28;19953;-71
2022/11/08 00:17:50;;;;;;;;;;;8.80;99.90;;;;;;5007492;28;19943;-72
2022/11/08 00:20:18;;;;;;;;;;;8.80;99.90;;;;;;5000586;28;20612;-72
2022/11/08 00:22:45;;;;;;;;;;;8.70;99.90;;;;;;5002561;28;19934;-72
2022/11/08 00:25:12;;;;;;;;;;;8.70;99.90;;;;;;5002352;28;19933;-71
2022/11/08 00:27:38;;;;;;;;;;;8.70;99.90;;;;;;5001642;28;19925;-72
2022/11/08 00:30:06;;;;;;;;;;;8.60;99.90;;;;;;5003243;28;19979;-71
2022/11/08 00:32:33;;;;;;;;;;;8.60;99.90;;;;;;5002563;28;20028;-72
2022/11/08 00:34:59;;;;;;;;;;;8.60;99.90;;;;;;5002145;28;19980;-71
2022/11/08 00:37:28;;;;;;;;;;;8.60;99.90;;;;;;5006402;28;20447;-72
2022/11/08 00:39:54;;;;;;;;;;;8.60;99.90;;;;;;5003823;28;19929;-71
2022/11/08 00:42:21;;;;;;;;;;;8.60;99.90;;;;;;5002838;28;19929;-72
2022/11/08 00:44:48;;;;;;;;;;;8.50;99.90;;;;;;5006186;28;20379;-71
2022/11/08 00:47:15;;;;;;;;;;;8.60;99.90;;;;;;5004860;28;19932;-71
2022/11/08 00:49:42;;;;;;;;;;;8.50;99.90;;;;;;5017540;28;19979;-71
2022/11/08 00:52:08;;;;;;;;;;;8.50;99.90;;;;;;5000189;28;20427;-71
2022/11/08 00:54:36;;;;;;;;;;;8.50;99.90;;;;;;5003246;28;19926;-71
2022/11/08 00:57:03;;;;;;;;;;;8.40;99.90;;;;;;5003621;28;19934;-71
2022/11/08 00:59:30;;;;;;;;;;;8.40;99.90;;;;;;5019449;28;20418;-71
2022/11/08 01:01:57;;;;;;;;;;;8.40;99.90;;;;;;5001034;28;19929;-72
2022/11/08 01:04:24;;;;;;;;;;;8.40;99.90;;;;;;5000110;28;19934;-71
2022/11/08 01:06:50;;;;;;;;;;;8.40;99.90;;;;;;4998113;28;19945;-71
2022/11/08 01:09:17;;;;;;;;;;;8.30;99.90;;;;;;5015660;28;20372;-71
2022/11/08 01:11:46;;;;;;;;;;;8.30;99.90;;;;;;4999841;28;19930;-71
2022/11/08 01:14:14;;;;;;;;;;;8.30;99.90;;;;;;5006080;28;20292;-71
2022/11/08 01:16:41;;;;;;;;;;;8.30;99.90;;;;;;5010234;28;20397;-71
2022/11/08 01:19:08;;;;;;;;;;;8.30;99.90;;;;;;5003286;28;19936;-71
2022/11/08 01:21:35;;;;;;;;;;;8.30;99.90;;;;;;5001108;28;20404;-71
2022/11/08 01:24:02;;;;;;;;;;;8.30;99.90;;;;;;5002156;28;20024;-71
2022/11/08 01:26:29;;;;;;;;;;;8.30;99.90;;;;;;5015849;28;19933;-72
2022/11/08 01:28:57;;;;;;;;;;;8.20;99.90;;;;;;4999320;28;20402;-71
2022/11/08 01:31:25;;;;;;;;;;;8.20;99.90;;;;;;5004219;28;20360;-71
2022/11/08 01:33:52;;;;;;;;;;;8.20;99.90;;;;;;5004208;28;19933;-71
2022/11/08 01:36:20;;;;;;;;;;;8.20;99.90;;;;;;5000934;28;19934;-71
2022/11/08 01:38:47;;;;;;;;;;;8.20;99.90;;;;;;5000956;28;20281;-71
2022/11/08 01:41:15;;;;;;;;;;;8.20;99.90;;;;;;5003544;28;19932;-71
2022/11/08 01:43:42;;;;;;;;;;;8.20;99.90;;;;;;5004208;28;20393;-71
2022/11/08 01:46:27;;;;;;;;;;;8.20;99.90;;;;;;4999308;28;19933;-71
2022/11/08 01:48:57;;;;;;;;;;;8.10;99.90;;;;;;5002637;28;20017;-71
2022/11/08 01:51:26;;;;;;;;;;;8.10;99.90;;;;;;5011563;28;19933;-71
2022/11/08 01:53:53;;;;;;;;;;;8.10;99.90;;;;;;4999509;28;20016;-71
2022/11/08 01:56:20;;;;;;;;;;;8.00;99.90;;;;;;5004844;28;20411;-71
2022/11/08 01:58:48;;;;;;;;;;;8.00;99.90;;;;;;5003735;28;19971;-71
2022/11/08 02:01:15;;;;;;;;;;;8.00;99.90;;;;;;4999321;28;20404;-71
2022/11/08 02:03:42;;;;;;;;;;;8.00;99.90;;;;;;5000894;28;19940;-71
2022/11/08 02:06:10;;;;;;;;;;;8.00;99.90;;;;;;5004499;28;19953;-71
2022/11/08 02:08:38;;;;;;;;;;;8.00;99.90;;;;;;5022760;28;19932;-71
2022/11/08 02:11:06;;;;;;;;;;;8.00;99.90;;;;;;5000399;28;19929;-71
2022/11/08 02:13:34;;;;;;;;;;;8.00;99.90;;;;;;5004213;28;20503;-71
2022/11/08 02:16:01;;;;;;;;;;;8.00;99.90;;;;;;4999397;28;19929;-71
2022/11/08 02:18:29;;;;;;;;;;;8.00;99.90;;;;;;5001357;28;19933;-71
2022/11/08 02:20:58;;;;;;;;;;;8.00;99.90;;;;;;4993190;28;20388;-71
2022/11/08 02:23:27;;;;;;;;;;;8.00;99.90;;;;;;4998581;28;20008;-71
2022/11/08 02:25:55;;;;;;;;;;;8.00;99.90;;;;;;5000026;28;20052;-71
2022/11/08 02:28:22;;;;;;;;;;;8.00;99.90;;;;;;5000174;28;20363;-71
2022/11/08 02:30:49;;;;;;;;;;;7.90;99.90;;;;;;5001757;28;20062;-71
2022/11/08 02:33:16;;;;;;;;;;;7.90;99.90;;;;;;5017318;28;19929;-71
2022/11/08 02:35:44;;;;;;;;;;;7.90;99.90;;;;;;4996089;28;19932;-71
2022/11/08 02:38:11;;;;;;;;;;;7.90;99.90;;;;;;4996836;28;20558;-71
2022/11/08 02:40:47;;;;;;;;;;;7.90;99.90;;;;;;5008105;28;20632;-72
2022/11/08 02:43:16;;;;;;;;;;;7.90;99.90;;;;;;4996853;28;19926;-71
2022/11/08 02:45:42;;;;;;;;;;;7.90;99.90;;;;;;4996372;28;19934;-71
2022/11/08 02:48:09;;;;;;;;;;;7.90;99.90;;;;;;4996562;28;19926;-71
2022/11/08 02:50:36;;;;;;;;;;;7.80;99.90;;;;;;4996356;28;19925;-71
2022/11/08 02:53:03;;;;;;;;;;;7.80;99.90;;;;;;4996312;28;19944;-71
2022/11/08 02:55:31;;;;;;;;;;;7.90;99.90;;;;;;4994370;28;19971;-71
2022/11/08 02:57:58;;;;;;;;;;;7.90;99.90;;;;;;5004016;28;19925;-71
2022/11/08 03:00:27;;;;;;;;;;;7.90;99.90;;;;;;4999152;28;20004;-71
2022/11/08 03:02:53;;;;;;;;;;;7.80;99.90;;;;;;5016406;28;20422;-71
2022/11/08 03:05:20;;;;;;;;;;;7.80;99.90;;;;;;5000308;28;19925;-71
2022/11/08 03:07:47;;;;;;;;;;;7.80;99.90;;;;;;5001864;28;20019;-71
2022/11/08 03:10:14;;;;;;;;;;;7.80;99.90;;;;;;4995040;28;19991;-71
2022/11/08 03:12:42;;;;;;;;;;;7.80;99.90;;;;;;5007522;28;19934;-71
2022/11/08 03:15:10;;;;;;;;;;;7.80;99.90;;;;;;4994078;28;19925;-71
2022/11/08 03:17:39;;;;;;;;;;;7.80;99.90;;;;;;5000977;28;20024;-75
2022/11/08 03:20:06;;;;;;;;;;;7.80;99.90;;;;;;4990094;28;20020;-71
2022/11/08 03:22:33;;;;;;;;;;;7.80;99.90;;;;;;5000543;28;19960;-70
2022/11/08 03:25:00;;;;;;;;;;;7.70;99.90;;;;;;4995947;28;19981;-71
2022/11/08 03:27:27;;;;;;;;;;;7.70;99.90;;;;;;4992968;28;20458;-71
2022/11/08 03:29:54;;;;;;;;;;;7.70;99.90;;;;;;4993638;28;19933;-72
2022/11/08 03:32:21;;;;;;;;;;;7.70;99.90;;;;;;5002198;28;20384;-72
2022/11/08 03:34:49;;;;;;;;;;;7.80;99.90;;;;;;4998452;28;19940;-71
2022/11/08 03:37:16;;;;;;;;;;;7.70;99.90;;;;;;5001803;28;19933;-74
2022/11/08 03:39:43;;;;;;;;;;;7.70;99.90;;;;;;4993795;28;20433;-72
2022/11/08 03:42:10;;;;;;;;;;;7.70;99.90;;;;;;5001731;28;19976;-72
2022/11/08 03:44:36;;;;;;;;;;;7.70;99.90;;;;;;4988413;28;20426;-72
2022/11/08 03:47:03;;;;;;;;;;;7.70;99.90;;;;;;4997946;28;19938;-71
2022/11/08 03:49:30;;;;;;;;;;;7.70;99.90;;;;;;4995484;28;19929;-71
2022/11/08 03:51:59;;;;;;;;;;;7.70;99.90;;;;;;4996849;28;20327;-72
2022/11/08 03:54:26;;;;;;;;;;;7.60;99.90;;;;;;4993846;28;20393;-71
2022/11/08 03:56:53;;;;;;;;;;;7.70;99.90;;;;;;5006235;28;20664;-72
2022/11/08 03:59:20;;;;;;;;;;;7.70;99.90;;;;;;5000413;28;19932;-71
2022/11/08 04:01:46;;;;;;;;;;;7.70;99.90;;;;;;4999643;28;20020;-72
2022/11/08 04:04:13;;;;;;;;;;;7.70;99.90;;;;;;4998008;28;20008;-71
2022/11/08 04:06:40;;;;;;;;;;;7.60;99.90;;;;;;5007551;28;20426;-72
2022/11/08 04:09:08;;;;;;;;;;;7.70;99.90;;;;;;5005559;28;19925;-71
2022/11/08 04:17:03;;;;;;;;;;;7.60;99.90;;;;;;5002663;28;19925;-71
2022/11/08 04:22:17;;;;;;;;;;;7.60;99.90;;;;;;4985401;28;20339;-71
2022/11/08 04:24:45;;;;;;;;;;;7.50;99.90;;;;;;4994569;28;20310;-72
2022/11/08 04:27:12;;;;;;;;;;;7.50;99.90;;;;;;4997414;28;20358;-71
2022/11/08 04:29:38;;;;;;;;;;;7.50;99.90;;;;;;4995072;28;19961;-71
2022/11/08 04:32:05;;;;;;;;;;;7.50;99.90;;;;;;5005350;28;19925;-72
2022/11/08 04:34:32;;;;;;;;;;;7.50;99.90;;;;;;5003243;28;19940;-71
2022/11/08 04:36:59;;;;;;;;;;;7.40;99.90;;;;;;5000555;28;19996;-71
2022/11/08 04:39:26;;;;;;;;;;;7.40;99.90;;;;;;5004855;28;19930;-71
2022/11/08 04:41:54;;;;;;;;;;;7.40;99.90;;;;;;5004218;28;20028;-71
2022/11/08 04:44:20;;;;;;;;;;;7.40;99.90;;;;;;5001687;28;19926;-72
2022/11/08 04:46:47;;;;;;;;;;;7.30;99.90;;;;;;4991302;28;20012;-72
2022/11/08 04:49:14;;;;;;;;;;;7.30;99.90;;;;;;4996732;28;19929;-71
2022/11/08 04:51:41;;;;;;;;;;;7.40;99.90;;;;;;4996379;28;19926;-70
2022/11/08 04:54:10;;;;;;;;;;;7.40;99.90;;;;;;4995688;28;19926;-71
2022/11/08 04:56:37;;;;;;;;;;;7.30;99.90;;;;;;5001078;28;20040;-73
2022/11/08 04:59:07;;;;;;;;;;;7.40;99.90;;;;;;4989059;28;19933;-72
2022/11/08 05:01:35;;;;;;;;;;;7.30;99.90;;;;;;4991448;28;19942;-72
2022/11/08 05:04:01;;;;;;;;;;;7.30;99.90;;;;;;4993637;28;19925;-72
2022/11/08 05:06:29;;;;;;;;;;;7.20;99.90;;;;;;5002973;28;20016;-72
2022/11/08 05:08:56;;;;;;;;;;;7.20;99.90;;;;;;4994523;28;19965;-72
2022/11/08 05:11:23;;;;;;;;;;;7.30;99.90;;;;;;5001114;28;20040;-71
2022/11/08 05:13:51;;;;;;;;;;;7.30;99.90;;;;;;5000772;28;19948;-71
2022/11/08 05:16:21;;;;;;;;;;;7.30;99.90;;;;;;5000283;28;19929;-72
2022/11/08 05:18:48;;;;;;;;;;;7.30;99.90;;;;;;4998533;28;20555;-72
2022/11/08 05:24:00;;;;;;;;;;;7.30;99.90;;;;;;4999868;28;19984;-71
2022/11/08 05:26:28;;;;;;;;;;;7.30;99.90;;;;;;4993290;28;19979;-72
2022/11/08 05:28:54;;;;;;;;;;;7.30;99.90;;;;;;5001666;28;19960;-72
2022/11/08 05:31:22;;;;;;;;;;;7.30;99.90;;;;;;4995889;28;19937;-72
2022/11/08 05:33:49;;;;;;;;;;;7.20;99.90;;;;;;4992086;28;19948;-74
2022/11/08 05:36:16;;;;;;;;;;;7.20;99.90;;;;;;4991351;28;19933;-74
2022/11/08 05:38:43;;;;;;;;;;;7.20;99.90;;;;;;4999818;28;19934;-74
2022/11/08 05:41:11;;;;;;;;;;;7.20;99.90;;;;;;4998894;28;19937;-72
2022/11/08 05:43:38;;;;;;;;;;;7.10;99.90;;;;;;5003495;28;20016;-72
2022/11/08 05:46:05;;;;;;;;;;;7.10;99.90;;;;;;4997971;28;19980;-71
2022/11/08 05:48:33;;;;;;;;;;;7.10;99.90;;;;;;4996437;28;19935;-72
2022/11/08 05:51:00;;;;;;;;;;;7.10;99.90;;;;;;4994804;28;20329;-75
2022/11/08 05:53:27;;;;;;;;;;;7.10;99.90;;;;;;4990174;28;19933;-71
2022/11/08 05:55:57;;;;;;;;;;;7.10;99.90;;;;;;4994136;28;20520;-77
2022/11/08 05:58:23;;;;;;;;;;;7.10;99.90;;;;;;4999248;28;20415;-72
2022/11/08 06:00:50;;;;;;;;;;;7.00;99.90;;;;;;4993733;28;19933;-77
2022/11/08 06:03:17;;;;;;;;;;;7.10;99.90;;;;;;4993386;28;19933;-77
2022/11/08 06:05:45;;;;;;;;;;;7.10;99.90;;;;;;4993849;28;19937;-71
2022/11/08 06:08:12;;;;;;;;;;;7.10;99.90;;;;;;4988966;28;20406;-72
2022/11/08 06:10:39;;;;;;;;;;;7.00;99.90;;;;;;5001060;28;19948;-77
2022/11/08 06:13:06;;;;;;;;;;;7.10;99.90;;;;;;5001510;28;19933;-77
2022/11/08 06:15:32;;;;;;;;;;;7.00;99.90;;;;;;4999557;28;20335;-73
2022/11/08 06:18:01;;;;;;;;;;;7.00;99.90;;;;;;4991948;28;20003;-72
2022/11/08 06:20:28;;;;;;;;;;;7.00;99.90;;;;;;4994157;28;20098;-71
2022/11/08 06:22:56;;;;;;;;;;;7.00;99.90;;;;;;4995980;28;19973;-76
2022/11/08 06:25:23;;;;;;;;;;;6.90;99.90;;;;;;4999928;28;19961;-79
2022/11/08 06:27:50;;;;;;;;;;;6.90;99.90;;;;;;4995836;28;19932;-72
2022/11/08 06:30:17;;;;;;;;;;;7.00;99.90;;;;;;5004254;28;19925;-72
2022/11/08 06:32:44;;;;;;;;;;;7.00;99.90;;;;;;4999266;28;19965;-71
2022/11/08 06:35:10;;;;;;;;;;;7.00;99.90;;;;;;4997726;28;19953;-76
2022/11/08 06:37:37;;;;;;;;;;;7.00;99.90;;;;;;5000078;28;20012;-75
2022/11/08 06:40:06;;;;;;;;;;;7.00;99.90;;;;;;4990202;28;20048;-72
2022/11/08 06:42:33;;;;;;;;;;;7.00;99.90;;;;;;4988097;28;20016;-72
2022/11/08 06:45:00;;;;;;;;;;;6.90;99.90;;;;;;5007005;28;20044;-72
2022/11/08 06:47:27;;;;;;;;;;;6.90;99.90;;;;;;4993387;28;19937;-72
2022/11/08 06:49:53;;;;;;;;;;;6.90;99.90;;;;;;5000277;28;19973;-73
2022/11/08 06:52:20;;;;;;;;;;;6.90;99.90;;;;;;4996675;28;20342;-72
2022/11/08 06:54:47;;;;;;;;;;;7.00;99.90;;;;;;5001373;28;19926;-72
2022/11/08 06:57:15;;;;;;;;;;;6.90;99.90;;;;;;4994123;28;19991;-72
2022/11/08 06:59:42;;;;;;;;;;;7.00;99.90;;;;;;4998199;28;19926;-72
2022/11/08 07:02:09;;;;;;;;;;;7.00;99.90;;;;;;4999285;28;19973;-72
2022/11/08 07:04:36;;;;;;;;;;;7.00;99.90;;;;;;4992485;28;19964;-72
2022/11/08 07:07:03;;;;;;;;;;;7.00;99.90;;;;;;4997435;28;20687;-72
2022/11/08 07:09:30;;;;;;;;;;;7.00;99.90;;;;;;4994311;28;19953;-72
2022/11/08 07:11:57;;;;;;;;;;;6.90;99.90;;;;;;4996660;28;19936;-72
2022/11/08 07:14:25;;;;;;;;;;;6.90;99.90;;;;;;4992157;28;20007;-72
2022/11/08 07:16:51;;;;;;;;;;;6.90;99.90;;;;;;4998159;28;20012;-72
2022/11/08 07:19:18;;;;;;;;;;;7.00;99.90;;;;;;4991836;28;19964;-72
2022/11/08 07:21:45;;;;;;;;;;;7.00;99.90;;;;;;4999854;28;19937;-72
2022/11/08 07:24:12;;;;;;;;;;;7.00;99.90;;;;;;4994068;28;19925;-72
2022/11/08 07:26:39;;;;;;;;;;;6.90;99.90;;;;;;4996519;28;19926;-72
2022/11/08 07:29:05;;;;;;;;;;;6.90;99.90;;;;;;4994411;28;19940;-72
2022/11/08 07:31:34;;;;;;;;;;;6.90;99.90;;;;;;5011306;28;20469;-71
2022/11/08 07:34:00;;;;;;;;;;;7.00;99.90;;;;;;4993344;28;19934;-72
2022/11/08 07:36:27;;;;;;;;;;;7.00;99.90;;;;;;5001426;28;19925;-72
2022/11/08 07:38:54;;;;;;;;;;;7.00;99.90;;;;;;4996759;28;19930;-72
2022/11/08 07:41:21;;;;;;;;;;;6.90;99.90;;;;;;4992646;28;19940;-73
2022/11/08 07:43:48;;;;;;;;;;;6.90;99.90;;;;;;4993597;28;19933;-72
2022/11/08 07:46:18;;;;;;;;;;;6.90;99.90;;;;;;4995084;28;19929;-72
2022/11/08 07:48:47;;;;;;;;;;;6.90;99.90;;;;;;4998226;28;19926;-72
2022/11/08 07:51:13;;;;;;;;;;;6.80;99.90;;;;;;5002105;28;19934;-72
2022/11/08 07:53:42;;;;;;;;;;;6.80;99.90;;;;;;4999262;28;19929;-72
2022/11/08 07:56:09;;;;;;;;;;;6.80;99.90;;;;;;5002943;28;20027;-72
2022/11/08 07:58:35;;;;;;;;;;;6.70;99.90;;;;;;4994540;28;20878;-72
2022/11/08 08:01:03;;;;;;;;;;;6.70;99.90;;;;;;5002856;28;19929;-72
2022/11/08 08:03:30;;;;;;;;;;;6.70;99.90;;;;;;5000206;28;20020;-72
2022/11/08 08:05:58;;;;;;;;;;;6.70;99.90;;;;;;5005171;28;19995;-72
2022/11/08 08:08:25;;;;;;;;;;;6.70;99.90;;;;;;4999629;28;20644;-72
2022/11/08 08:10:55;;;;;;;;;;;6.70;99.90;;;;;;5000035;28;19952;-72
2022/11/08 08:13:22;;;;;;;;;;;6.70;99.90;;;;;;4997910;28;19969;-72
2022/11/08 08:15:49;;;;;;;;;;;6.80;99.90;;;;;;4997563;28;19968;-72
2022/11/08 08:18:19;;;;;;;;;;;6.80;99.90;;;;;;5001034;28;20463;-72
2022/11/08 08:20:46;;;;;;;;;;;6.90;99.90;;;;;;5001263;28;20016;-72
2022/11/08 08:23:15;;;;;;;;;;;6.90;99.90;;;;;;4995406;28;19932;-72
2022/11/08 08:25:42;;;;;;;;;;;6.90;99.90;;;;;;4996640;28;20015;-72
2022/11/08 08:28:09;;;;;;;;;;;6.90;99.90;;;;;;4995776;28;19925;-72
2022/11/08 08:30:36;;;;;;;;;;;6.90;99.90;;;;;;5004886;28;19956;-75
2022/11/08 08:33:05;;;;;;;;;;;6.90;99.90;;;;;;5004972;28;19977;-74
2022/11/08 08:35:33;;;;;;;;;;;6.90;99.90;;;;;;4999209;28;20419;-77
2022/11/08 08:38:00;;;;;;;;;;;6.90;99.90;;;;;;4999976;28;20300;-72
2022/11/08 08:40:28;;;;;;;;;;;6.80;99.90;;;;;;5006061;28;19934;-72
2022/11/08 08:42:57;;;;;;;;;;;6.80;99.90;;;;;;5002158;28;19932;-72
2022/11/08 08:45:24;;;;;;;;;;;6.80;99.90;;;;;;5018123;28;19964;-72
2022/11/08 08:47:52;;;;;;;;;;;6.80;99.90;;;;;;5003174;28;20462;-72
2022/11/08 08:50:18;;;;;;;;;;;6.80;99.90;;;;;;4999588;28;19930;-72
2022/11/08 08:52:45;;;;;;;;;;;6.80;99.90;;;;;;4995722;28;19937;-72
2022/11/08 08:55:12;;;;;;;;;;;6.80;99.90;;;;;;5004681;28;19925;-72
2022/11/08 08:57:43;;;;;;;;;;;6.80;99.90;;;;;;5004055;28;19926;-72
2022/11/08 09:00:12;;;;;;;;;;;6.90;99.90;;;;;;4987253;28;20647;-72
2022/11/08 09:02:39;;;;;;;;;;;6.80;99.90;;;;;;4999090;28;19964;-71
2022/11/08 09:05:06;;;;;;;;;;;6.80;99.90;;;;;;5011372;28;19971;-72
2022/11/08 09:07:33;;;;;;;;;;;6.80;99.90;;;;;;5005703;28;20041;-72
2022/11/08 09:10:00;;;;;;;;;;;6.80;99.90;;;;;;4995602;28;19984;-72
2022/11/08 09:12:27;;;;;;;;;;;6.80;99.90;;;;;;4997206;28;19996;-72
2022/11/08 09:14:55;;;;;;;;;;;6.80;99.90;;;;;;4996539;28;20009;-72
2022/11/08 09:17:22;;;;;;;;;;;6.80;99.90;;;;;;4995981;28;19931;-72
2022/11/08 09:19:49;;;;;;;;;;;6.80;99.90;;;;;;5012296;28;19926;-72
2022/11/08 09:22:16;;;;;;;;;;;6.80;99.90;;;;;;4996048;28;19937;-72
2022/11/08 09:24:43;;;;;;;;;;;6.80;99.90;;;;;;4998144;28;20058;-72
2022/11/08 09:27:10;;;;;;;;;;;6.80;99.90;;;;;;5000496;28;19933;-72
2022/11/08 09:29:36;;;;;;;;;;;6.90;99.90;;;;;;4997738;28;19952;-72
2022/11/08 09:32:05;;;;;;;;;;;6.90;99.90;;;;;;4992642;28;19933;-72
2022/11/08 09:34:32;;;;;;;;;;;6.90;99.90;;;;;;4997569;28;19925;-72
2022/11/08 09:36:58;;;;;;;;;;;6.90;99.90;;;;;;5001945;28;20418;-72
2022/11/08 09:39:25;;;;;;;;;;;7.00;99.90;;;;;;4998969;28;20008;-72
2022/11/08 09:42:12;;;;;;;;;;;7.00;99.90;;;;;;4997826;28;19933;-72
2022/11/08 09:44:48;;;;;;;;;;;6.90;99.90;;;;;;5014298;28;20009;-72
2022/11/08 09:47:19;;;;;;;;;;;6.90;99.90;;;;;;4999492;28;19941;-72
2022/11/08 09:49:49;;;;;;;;;;;7.00;99.90;;;;;;4995585;28;19932;-72
2022/11/08 09:52:20;;;;;;;;;;;7.00;99.90;;;;;;4998215;28;19969;-75
2022/11/08 09:54:47;;;;;;;;;;;7.00;99.90;;;;;;4997062;28;19934;-76
2022/11/08 09:57:16;;;;;;;;;;;7.00;99.90;;;;;;4998782;28;19932;-71
2022/11/08 09:59:43;;;;;;;;;;;7.00;99.90;;;;;;4995668;28;19933;-71
2022/11/08 10:02:15;;;;;;;;;;;7.00;99.90;;;;;;4994849;28;19992;-71
2022/11/08 10:04:45;;;;;;;;;;;7.00;99.90;;;;;;4996205;28;19929;-72
2022/11/08 10:07:19;;;;;;;;;;;7.00;99.90;;;;;;4992196;28;19926;-71
2022/11/08 10:09:53;;;;;;;;;;;7.10;99.90;;;;;;4997609;28;20344;-72
2022/11/08 10:12:24;;;;;;;;;;;7.10;99.90;;;;;;4990116;28;20012;-72
2022/11/08 10:14:58;;;;;;;;;;;7.10;99.90;;;;;;5009702;28;19999;-71
2022/11/08 10:17:45;;;;;;;;;;;7.10;99.90;;;;;;4993307;28;20068;-71
2022/11/08 10:20:18;;;;;;;;;;;7.10;99.90;;;;;;4993115;28;20350;-72
2022/11/08 10:22:48;;;;;;;;;;;7.10;99.90;;;;;;4996775;28;19934;-71
2022/11/08 10:25:19;;;;;;;;;;;7.10;99.90;;;;;;4996028;28;19933;-71
2022/11/08 10:27:46;;;;;;;;;;;7.10;99.90;;;;;;4991485;28;19933;-71
2022/11/08 10:30:17;;;;;;;;;;;7.10;99.90;;;;;;4997713;28;19961;-71
2022/11/08 10:32:44;;;;;;;;;;;7.20;99.90;;;;;;4997887;28;19965;-72
2022/11/08 10:35:18;;;;;;;;;;;7.10;99.90;;;;;;4998745;28;19957;-72
2022/11/08 10:37:47;;;;;;;;;;;7.20;99.90;;;;;;4994264;28;20044;-71
2022/11/08 10:40:18;;;;;;;;;;;7.20;99.90;;;;;;4993586;28;20300;-72
2022/11/08 10:42:47;;;;;;;;;;;7.20;99.90;;;;;;4995058;28;20347;-72
2022/11/08 10:45:13;;;;;;;;;;;7.20;99.90;;;;;;4997196;28;19931;-71
2022/11/08 10:47:40;;;;;;;;;;;7.20;99.90;;;;;;4994055;28;19929;-71
2022/11/08 10:50:13;;;;;;;;;;;7.20;99.90;;;;;;4993941;28;19940;-71
2022/11/08 10:52:42;;;;;;;;;;;7.20;99.90;;;;;;4990915;28;19964;-72
2022/11/08 10:55:22;;;;;;;;;;;7.20;99.90;;;;;;4993128;28;20395;-72
2022/11/08 10:57:49;;;;;;;;;;;7.20;99.90;;;;;;4993539;28;20061;-71
2022/11/08 11:00:17;;;;;;;;;;;7.20;99.90;;;;;;4996208;28;19968;-71
2022/11/08 11:02:45;;;;;;;;;;;7.20;99.90;;;;;;4996489;28;19925;-71
2022/11/08 11:05:24;;;;;;;;;;;7.20;99.90;;;;;;4996501;28;19926;-71
2022/11/08 11:07:58;;;;;;;;;;;7.30;99.90;;;;;;4999887;28;19932;-71
2022/11/08 11:10:28;;;;;;;;;;;7.20;99.90;;;;;;4997657;28;19983;-72
2022/11/08 11:13:00;;;;;;;;;;;7.30;99.90;;;;;;4992630;28;20008;-72
2022/11/08 11:15:30;;;;;;;;;;;7.30;99.90;;;;;;4995379;28;19937;-72
2022/11/08 11:17:57;;;;;;;;;;;7.30;99.90;;;;;;5001108;28;20207;-71
2022/11/08 11:20:24;;;;;;;;;;;7.30;99.90;;;;;;4998922;28;20013;-71
2022/11/08 11:22:52;;;;;;;;;;;7.30;99.90;;;;;;4990874;28;20347;-72
2022/11/08 11:25:20;;;;;;;;;;;7.40;99.90;;;;;;4991329;28;19933;-72
2022/11/08 11:27:52;;;;;;;;;;;7.40;99.90;;;;;;4994473;28;20722;-74
2022/11/08 11:30:24;;;;;;;;;;;7.40;99.90;;;;;;4985198;28;19976;-71
2022/11/08 11:32:56;;;;;;;;;;;7.40;99.90;;;;;;5014688;28;19937;-73
2022/11/08 11:35:23;;;;;;;;;;;7.50;99.90;;;;;;4997843;28;20405;-74
2022/11/08 11:37:50;;;;;;;;;;;7.40;99.90;;;;;;4991582;28;20391;-71
2022/11/08 11:40:21;;;;;;;;;;;7.50;99.90;;;;;;4994122;28;19932;-72
2022/11/08 11:42:54;;;;;;;;;;;7.50;99.90;;;;;;5002331;28;20371;-71
2022/11/08 11:45:24;;;;;;;;;;;7.50;99.90;;;;;;4999504;28;19987;-72
2022/11/08 11:47:52;;;;;;;;;;;7.50;99.90;;;;;;4998382;28;19991;-71
2022/11/08 11:50:22;;;;;;;;;;;7.50;99.90;;;;;;5001421;28;20340;-72
2022/11/08 11:52:48;;;;;;;;;;;7.60;99.90;;;;;;5001473;28;19929;-72
2022/11/08 11:55:16;;;;;;;;;;;7.60;99.90;;;;;;4996656;28;19969;-71
2022/11/08 11:57:50;;;;;;;;;;;7.60;99.90;;;;;;4999963;28;19930;-72
2022/11/08 12:00:18;;;;;;;;;;;7.60;99.90;;;;;;5001941;28;20027;-73
2022/11/08 12:03:00;;;;;;;;;;;7.60;99.90;;;;;;4995905;28;19936;-75
2022/11/08 12:05:38;;;;;;;;;;;7.70;99.90;;;;;;4994683;28;19969;-72
2022/11/08 12:08:10;;;;;;;;;;;7.70;99.90;;;;;;4999712;28;19940;-71
2022/11/08 12:10:45;;;;;;;;;;;7.70;99.90;;;;;;4995163;28;20008;-71
2022/11/08 12:13:15;;;;;;;;;;;7.70;99.90;;;;;;5000605;28;19936;-71
2022/11/08 12:15:47;;;;;;;;;;;7.80;99.90;;;;;;4997983;28;20016;-71
2022/11/08 12:18:23;;;;;;;;;;;7.80;99.90;;;;;;4998682;28;19929;-71
2022/11/08 12:20:57;;;;;;;;;;;7.80;99.90;;;;;;4995766;28;19970;-72
2022/11/08 12:23:31;;;;;;;;;;;7.80;99.90;;;;;;4995908;28;19937;-71
2022/11/08 12:26:01;;;;;;;;;;;7.80;99.90;;;;;;5001410;28;20012;-71
2022/11/08 12:28:40;;;;;;;;;;;7.90;99.90;;;;;;4994231;28;21084;-72
2022/11/08 12:31:16;;;;;;;;;;;8.00;99.90;;;;;;4997748;28;19933;-71
2022/11/08 12:33:48;;;;;;;;;;;7.90;99.90;;;;;;5002519;28;19933;-71
2022/11/08 12:36:19;;;;;;;;;;;7.90;99.90;;;;;;4996866;28;20012;-72
2022/11/08 12:38:51;;;;;;;;;;;8.00;99.90;;;;;;4999715;28;20407;-71
2022/11/08 12:41:23;;;;;;;;;;;8.00;99.90;;;;;;4998033;28;19961;-71
2022/11/08 12:43:59;;;;;;;;;;;8.00;99.90;;;;;;5003739;28;19925;-71
2022/11/08 12:46:30;;;;;;;;;;;8.00;99.90;;;;;;5000562;28;19933;-71
2022/11/08 12:49:06;;;;;;;;;;;8.10;99.90;;;;;;5001937;28;19926;-71
2022/11/08 12:51:40;;;;;;;;;;;8.10;99.90;;;;;;4999746;28;19925;-70
2022/11/08 12:54:17;;;;;;;;;;;8.10;99.90;;;;;;5001240;28;19926;-71
2022/11/08 12:56:47;;;;;;;;;;;8.20;99.90;;;;;;4991463;28;20476;-71
2022/11/08 12:59:19;;;;;;;;;;;8.20;99.90;;;;;;4995135;28;19975;-71
2022/11/08 13:01:48;;;;;;;;;;;8.20;99.90;;;;;;4995046;28;20023;-71
2022/11/08 13:04:21;;;;;;;;;;;8.20;99.90;;;;;;4995666;28;20010;-71
2022/11/08 13:06:52;;;;;;;;;;;8.20;99.90;;;;;;4997055;28;19933;-72
2022/11/08 13:09:22;;;;;;;;;;;8.30;99.90;;;;;;5018151;28;19933;-72
2022/11/08 13:11:52;;;;;;;;;;;8.30;99.90;;;;;;5013077;28;19933;-71
2022/11/08 13:14:19;;;;;;;;;;;8.30;99.90;;;;;;4998796;28;20320;-72
2022/11/08 13:17:07;;;;;;;;;;;8.40;99.90;;;;;;4994388;28;19960;-71
2022/11/08 13:19:49;;;;;;;;;;;8.40;99.90;;;;;;5013211;28;20035;-71
2022/11/08 13:22:31;;;;;;;;;;;8.40;99.90;;;;;;4997301;28;19960;-72
2022/11/08 13:24:58;;;;;;;;;;;8.40;99.90;;;;;;4989462;28;20476;-72
2022/11/08 13:27:31;;;;;;;;;;;8.40;99.90;;;;;;4995134;28;19926;-75
2022/11/08 13:30:00;;;;;;;;;;;8.50;99.90;;;;;;4990548;28;19934;-72
2022/11/08 13:32:34;;;;;;;;;;;8.50;99.90;;;;;;4996749;28;20434;-72
2022/11/08 13:35:07;;;;;;;;;;;8.50;99.90;;;;;;4993983;28;19929;-72
2022/11/08 13:37:42;;;;;;;;;;;8.60;99.90;;;;;;4998347;28;19926;-72
2022/11/08 13:40:19;;;;;;;;;;;8.60;99.90;;;;;;4996221;28;20327;-73
2022/11/08 13:42:56;;;;;;;;;;;8.60;99.90;;;;;;4997650;28;19956;-71
2022/11/08 13:45:26;;;;;;;;;;;8.60;99.90;;;;;;4996177;28;19929;-71
2022/11/08 13:47:58;;;;;;;;;;;8.60;99.90;;;;;;4999328;28;20022;-72
2022/11/08 13:50:44;;;;;;;;;;;8.70;99.90;;;;;;4994744;28;19926;-72
2022/11/08 13:53:23;;;;;;;;;;;8.70;99.90;;;;;;4999462;28;19926;-72
2022/11/08 13:55:50;;;;;;;;;;;8.70;99.90;;;;;;4990281;28;19984;-72
2022/11/08 13:58:30;;;;;;;;;;;8.70;99.90;;;;;;4998345;28;19964;-72
2022/11/08 14:00:57;;;;;;;;;;;8.80;99.90;;;;;;4993429;28;19971;-72
2022/11/08 14:03:43;;;;;;;;;;;8.80;99.90;;;;;;5000432;28;19955;-71
2022/11/08 14:06:14;;;;;;;;;;;8.80;99.90;;;;;;4995493;28;20450;-72
2022/11/08 14:08:45;;;;;;;;;;;8.90;99.90;;;;;;4999261;28;19960;-71
2022/11/08 14:11:24;;;;;;;;;;;8.90;99.90;;;;;;4994823;28;19926;-72
2022/11/08 14:14:00;;;;;;;;;;;8.90;99.90;;;;;;4991157;28;20487;-72
2022/11/08 14:16:29;;;;;;;;;;;9.00;99.90;;;;;;4986842;28;19926;-81
2022/11/08 14:19:05;;;;;;;;;;;9.10;99.90;;;;;;4994529;28;19933;-72
2022/11/08 14:21:33;;;;;;;;;;;9.10;99.90;;;;;;4996095;28;20667;-71
2022/11/08 14:24:00;;;;;;;;;;;9.10;99.90;;;;;;4999926;28;19926;-71
2022/11/08 14:26:29;;;;;;;;;;;9.10;99.90;;;;;;4996165;28;19926;-71
2022/11/08 14:28:59;;;;;;;;;;;9.10;99.90;;;;;;4994426;28;19926;-71
2022/11/08 14:31:26;;;;;;;;;;;9.10;99.90;;;;;;4994115;28;20192;-71
2022/11/08 14:33:54;;;;;;;;;;;9.20;99.90;;;;;;4995167;28;19934;-71
2022/11/08 14:36:21;;;;;;;;;;;9.20;99.90;;;;;;4997122;28;19958;-71
2022/11/08 14:38:50;;;;;;;;;;;9.20;99.90;;;;;;4999127;28;20646;-71
2022/11/08 14:41:22;;;;;;;;;;;9.20;99.90;;;;;;4987033;28;20395;-72
2022/11/08 14:43:50;;;;;;;;;;;9.20;99.90;;;;;;5012238;28;20022;-71
2022/11/08 14:46:22;;;;;;;;;;;9.30;99.90;;;;;;4991674;28;20311;-71
2022/11/08 14:48:49;;;;;;;;;;;9.20;99.90;;;;;;4995371;28;19930;-71
2022/11/08 14:51:18;;;;;;;;;;;9.30;99.90;;;;;;5003492;28;21257;-72
2022/11/08 14:53:46;;;;;;;;;;;9.30;99.90;;;;;;4993231;28;20307;-71
2022/11/08 14:56:18;;;;;;;;;;;9.30;99.90;;;;;;4999677;28;19932;-72
2022/11/08 14:58:45;;;;;;;;;;;9.30;99.90;;;;;;4992313;28;19941;-72
2022/11/08 15:01:13;;;;;;;;;;;9.40;99.90;;;;;;4993515;28;20437;-72